Time;durP1;ratioP1;P1;durP2;ratioP2;P2;SDS_P1;SDS_P2;PMS_P1;PMS_P2;Temp;Humidity;BMP_temperature;BMP_pressure;BME280_temperature;BME280_humidity;BME280_pressure;Samples;Min_cycle;Max_cycle;Signal;HPM_P1;HPM_P2
2021/01/09 00:02:14;;;;;;;28.10;12.65;;;;;;;;;;5029848;28;20036;-59
2021/01/09 00:04:40;;;;;;;27.73;12.10;;;;;;;;;;5036543;28;20489;-58
2021/01/09 00:07:10;;;;;;;29.08;12.85;;;;;;;;;;5037773;28;20101;-59
2021/01/09 00:09:39;;;;;;;28.75;12.68;;;;;;;;;;5043104;28;20041;-58
2021/01/09 00:12:05;;;;;;;28.55;12.38;;;;;;;;;;5044248;28;20037;-58
2021/01/09 00:14:31;;;;;;;28.48;12.50;;;;;;;;;;5035249;28;20469;-58
2021/01/09 00:16:57;;;;;;;28.45;12.07;;;;;;;;;;5034436;28;20502;-58
2021/01/09 00:19:23;;;;;;;26.45;12.77;;;;;;;;;;5024888;28;20040;-59
2021/01/09 00:21:52;;;;;;;28.38;12.32;;;;;;;;;;5046504;28;20051;-59
2021/01/09 00:24:18;;;;;;;31.83;13.20;;;;;;;;;;5042360;28;20708;-59
2021/01/09 00:26:44;;;;;;;26.55;12.25;;;;;;;;;;5048126;28;20039;-59
2021/01/09 00:29:10;;;;;;;32.75;13.15;;;;;;;;;;5038154;28;20162;-59
2021/01/09 00:31:36;;;;;;;28.77;12.82;;;;;;;;;;5023528;28;20048;-59
2021/01/09 00:34:02;;;;;;;28.77;12.73;;;;;;;;;;5041749;28;20044;-59
2021/01/09 00:36:28;;;;;;;29.75;13.18;;;;;;;;;;5039921;28;20120;-59
2021/01/09 00:38:54;;;;;;;30.30;12.80;;;;;;;;;;5044017;28;20138;-59
2021/01/09 00:41:27;;;;;;;35.50;12.88;;;;;;;;;;5027355;28;20124;-59
2021/01/09 00:43:53;;;;;;;31.60;11.63;;;;;;;;;;5042949;28;20123;-59
2021/01/09 00:46:19;;;;;;;34.78;13.00;;;;;;;;;;5052538;28;20527;-59
2021/01/09 00:48:45;;;;;;;32.78;13.27;;;;;;;;;;5041492;28;20398;-59
2021/01/09 00:51:12;;;;;;;34.92;13.25;;;;;;;;;;5048297;28;20032;-59
2021/01/09 00:53:38;;;;;;;34.67;13.43;;;;;;;;;;5043926;28;20054;-59
2021/01/09 00:56:05;;;;;;;33.15;13.10;;;;;;;;;;5047373;28;20036;-59
2021/01/09 00:58:31;;;;;;;30.45;12.68;;;;;;;;;;5023622;28;20071;-59
2021/01/09 01:00:57;;;;;;;36.70;12.68;;;;;;;;;;5053061;28;20036;-58
2021/01/09 01:03:23;;;;;;;31.45;12.73;;;;;;;;;;5055897;28;20037;-59
2021/01/09 01:05:49;;;;;;;32.72;12.77;;;;;;;;;;5046756;28;20060;-59
2021/01/09 01:08:15;;;;;;;27.73;12.23;;;;;;;;;;5047329;28;20047;-59
2021/01/09 01:10:41;;;;;;;32.53;11.95;;;;;;;;;;5048245;28;20041;-59
2021/01/09 01:13:08;;;;;;;30.33;11.32;;;;;;;;;;5044449;28;20139;-59
2021/01/09 01:15:34;;;;;;;31.23;12.00;;;;;;;;;;5037760;28;20166;-59
2021/01/09 01:18:00;;;;;;;27.50;11.63;;;;;;;;;;5046890;28;20028;-59
2021/01/09 01:20:27;;;;;;;31.95;10.77;;;;;;;;;;5052585;28;20111;-58
2021/01/09 01:22:53;;;;;;;31.77;10.73;;;;;;;;;;5050472;28;20146;-58
2021/01/09 01:25:19;;;;;;;36.10;12.18;;;;;;;;;;5051601;28;20541;-58
2021/01/09 01:27:45;;;;;;;35.28;11.95;;;;;;;;;;5054979;28;20043;-58
2021/01/09 01:30:11;;;;;;;30.42;11.23;;;;;;;;;;5043144;28;20036;-59
2021/01/09 01:32:37;;;;;;;31.80;11.10;;;;;;;;;;5051021;28;20445;-58
2021/01/09 01:35:03;;;;;;;26.35;10.90;;;;;;;;;;5048630;28;20056;-58
2021/01/09 01:37:29;;;;;;;31.10;11.88;;;;;;;;;;5041418;28;20174;-58
2021/01/09 01:39:55;;;;;;;30.13;11.50;;;;;;;;;;5042516;28;20418;-58
2021/01/09 01:42:21;;;;;;;35.78;11.88;;;;;;;;;;5041153;28;20033;-58
2021/01/09 01:44:47;;;;;;;37.10;12.32;;;;;;;;;;5045623;28;20044;-58
2021/01/09 01:47:21;;;;;;;43.03;13.55;;;;;;;;;;5054078;28;20444;-58
2021/01/09 01:49:47;;;;;;;28.88;11.75;;;;;;;;;;5046914;28;20040;-57
2021/01/09 01:52:14;;;;;;;33.95;12.10;;;;;;;;;;5041613;28;20538;-58
2021/01/09 01:54:44;;;;;;;29.77;12.02;;;;;;;;;;5045292;28;20629;-57
2021/01/09 01:57:13;;;;;;;31.13;11.93;;;;;;;;;;5020918;28;20094;-58
2021/01/09 01:59:40;;;;;;;38.00;13.07;;;;;;;;;;5043973;28;20067;-58
2021/01/09 02:02:10;;;;;;;38.60;13.63;;;;;;;;;;5047636;28;20764;-58
2021/01/09 02:04:36;;;;;;;43.28;15.13;;;;;;;;;;5049476;28;20498;-58
2021/01/09 02:07:05;;;;;;;40.22;13.82;;;;;;;;;;5046059;28;20074;-58
2021/01/09 02:09:34;;;;;;;34.08;12.93;;;;;;;;;;5039672;28;20538;-58
2021/01/09 02:12:00;;;;;;;42.83;14.27;;;;;;;;;;5034794;28;20070;-59
2021/01/09 02:14:40;;;;;;;36.85;13.27;;;;;;;;;;5044413;28;20186;-59
2021/01/09 02:17:07;;;;;;;46.63;14.50;;;;;;;;;;5049528;28;20364;-59
2021/01/09 02:19:35;;;;;;;37.33;13.70;;;;;;;;;;5045992;28;20040;-59
2021/01/09 02:22:03;;;;;;;51.83;15.70;;;;;;;;;;5043379;28;20059;-59
2021/01/09 02:24:29;;;;;;;43.13;14.10;;;;;;;;;;5043020;28;20105;-59
2021/01/09 02:26:55;;;;;;;40.63;13.65;;;;;;;;;;5022801;28;20582;-58
2021/01/09 02:29:23;;;;;;;38.78;12.40;;;;;;;;;;5018914;28;20040;-59
2021/01/09 02:32:06;;;;;;;35.60;11.85;;;;;;;;;;5050151;28;20044;-59
2021/01/09 02:34:37;;;;;;;40.67;13.65;;;;;;;;;;5044589;28;20194;-57
2021/01/09 02:37:03;;;;;;;41.42;14.10;;;;;;;;;;5043213;28;20082;-59
2021/01/09 02:39:29;;;;;;;40.08;13.70;;;;;;;;;;5041592;28;20039;-59
2021/01/09 02:41:55;;;;;;;39.83;13.45;;;;;;;;;;5046312;28;20028;-58
2021/01/09 02:44:21;;;;;;;36.15;14.02;;;;;;;;;;5044620;28;20033;-58
2021/01/09 02:46:47;;;;;;;37.30;14.73;;;;;;;;;;5045530;28;20108;-59
2021/01/09 02:49:13;;;;;;;39.67;14.18;;;;;;;;;;5044137;28;20064;-59
2021/01/09 02:51:39;;;;;;;35.83;13.57;;;;;;;;;;5043062;28;20443;-58
2021/01/09 02:54:05;;;;;;;43.80;14.02;;;;;;;;;;5049806;28;20040;-59
2021/01/09 02:56:31;;;;;;;39.25;13.90;;;;;;;;;;5051052;28;20044;-59
2021/01/09 02:58:57;;;;;;;37.13;14.38;;;;;;;;;;5043279;28;20043;-58
2021/01/09 03:01:27;;;;;;;42.00;12.85;;;;;;;;;;5027121;28;20033;-59
2021/01/09 03:03:54;;;;;;;45.53;14.18;;;;;;;;;;5049370;28;20501;-59
2021/01/09 03:06:20;;;;;;;32.67;12.32;;;;;;;;;;5048269;28;20355;-59
2021/01/09 03:08:46;;;;;;;33.50;12.90;;;;;;;;;;5036036;28;20111;-59
2021/01/09 03:11:12;;;;;;;40.55;13.68;;;;;;;;;;5049899;28;20824;-59
2021/01/09 03:13:38;;;;;;;45.30;12.68;;;;;;;;;;5049445;28;20028;-59
2021/01/09 03:16:04;;;;;;;40.95;12.82;;;;;;;;;;5045154;28;20072;-59
2021/01/09 03:18:30;;;;;;;31.13;12.13;;;;;;;;;;5040619;28;20033;-59
2021/01/09 03:20:56;;;;;;;32.33;12.18;;;;;;;;;;5045175;28;20387;-59
2021/01/09 03:23:22;;;;;;;29.23;11.77;;;;;;;;;;5027849;28;20183;-59
2021/01/09 03:25:48;;;;;;;31.50;11.88;;;;;;;;;;5045118;28;20213;-59
2021/01/09 03:28:14;;;;;;;37.47;12.55;;;;;;;;;;5048579;28;20494;-59
2021/01/09 03:30:40;;;;;;;33.42;12.05;;;;;;;;;;5026211;28;20036;-59
2021/01/09 03:33:06;;;;;;;31.60;10.88;;;;;;;;;;5039110;28;20039;-58
2021/01/09 03:35:32;;;;;;;35.40;12.88;;;;;;;;;;5042651;28;20558;-59
2021/01/09 03:37:58;;;;;;;26.85;11.60;;;;;;;;;;5041712;28;20032;-58
2021/01/09 03:40:24;;;;;;;37.50;13.23;;;;;;;;;;5043038;28;20039;-59
2021/01/09 03:42:50;;;;;;;31.13;12.70;;;;;;;;;;5048135;28;20033;-58
2021/01/09 03:45:16;;;;;;;38.03;13.02;;;;;;;;;;5025579;28;20040;-58
2021/01/09 03:47:42;;;;;;;33.13;12.88;;;;;;;;;;5047379;28;20078;-59
2021/01/09 03:50:09;;;;;;;35.13;12.85;;;;;;;;;;5035008;28;20048;-59
2021/01/09 03:52:35;;;;;;;38.83;13.02;;;;;;;;;;5052151;28;20425;-58
2021/01/09 03:55:01;;;;;;;35.42;12.73;;;;;;;;;;5048495;28;20201;-58
2021/01/09 03:57:27;;;;;;;36.92;12.43;;;;;;;;;;5038353;28;20139;-58
2021/01/09 03:59:53;;;;;;;38.83;13.20;;;;;;;;;;5044412;28;20052;-58
2021/01/09 04:02:19;;;;;;;36.90;12.40;;;;;;;;;;5018871;28;20101;-58
2021/01/09 04:04:45;;;;;;;36.30;12.35;;;;;;;;;;5053652;28;20334;-59
2021/01/09 04:07:11;;;;;;;29.92;11.75;;;;;;;;;;5039665;28;20048;-58
2021/01/09 04:09:37;;;;;;;34.47;11.70;;;;;;;;;;5039986;28;20046;-58
2021/01/09 04:12:03;;;;;;;34.53;12.63;;;;;;;;;;5060113;28;20440;-58
2021/01/09 04:14:29;;;;;;;37.47;12.63;;;;;;;;;;5033697;28;20044;-58
2021/01/09 04:16:55;;;;;;;30.48;11.88;;;;;;;;;;5046264;28;20044;-58
2021/01/09 04:19:21;;;;;;;37.83;12.05;;;;;;;;;;5041196;28;20043;-58
2021/01/09 04:21:51;;;;;;;27.50;11.57;;;;;;;;;;5053570;28;20358;-58
2021/01/09 04:24:18;;;;;;;34.95;12.38;;;;;;;;;;5025554;28;20543;-58
2021/01/09 04:26:44;;;;;;;33.83;12.90;;;;;;;;;;5046451;28;20623;-59
2021/01/09 04:29:10;;;;;;;32.78;13.52;;;;;;;;;;5045065;28;20048;-58
2021/01/09 04:31:36;;;;;;;31.73;12.00;;;;;;;;;;5042858;28;20049;-58
2021/01/09 04:34:02;;;;;;;34.83;12.85;;;;;;;;;;5049922;28;20529;-58
2021/01/09 04:36:28;;;;;;;32.97;12.35;;;;;;;;;;5057696;28;20088;-58
2021/01/09 04:38:54;;;;;;;34.33;12.80;;;;;;;;;;5042772;28;20490;-58
2021/01/09 04:41:21;;;;;;;34.45;12.57;;;;;;;;;;5041636;28;23289;-58
2021/01/09 04:43:50;;;;;;;29.08;12.10;;;;;;;;;;5047000;28;21887;-58
2021/01/09 04:46:21;;;;;;;35.30;13.07;;;;;;;;;;5040425;28;20040;-59
2021/01/09 04:48:47;;;;;;;33.05;13.10;;;;;;;;;;5045934;28;20256;-58
2021/01/09 04:51:14;;;;;;;29.70;11.88;;;;;;;;;;5031229;28;20024;-58
2021/01/09 04:53:41;;;;;;;34.85;13.32;;;;;;;;;;5037192;28;20123;-58
2021/01/09 04:56:07;;;;;;;31.30;12.48;;;;;;;;;;5025279;28;20051;-58
2021/01/09 04:58:36;;;;;;;32.95;11.98;;;;;;;;;;5042709;28;20111;-58
2021/01/09 05:01:02;;;;;;;32.97;12.10;;;;;;;;;;5052547;28;20040;-58
2021/01/09 05:03:28;;;;;;;33.38;11.60;;;;;;;;;;5054644;28;20587;-58
2021/01/09 05:05:54;;;;;;;32.85;11.52;;;;;;;;;;5030898;28;20131;-58
2021/01/09 05:08:20;;;;;;;31.65;11.57;;;;;;;;;;5052328;28;20298;-58
2021/01/09 05:10:49;;;;;;;32.15;11.23;;;;;;;;;;5053189;28;20460;-57
2021/01/09 05:13:15;;;;;;;35.20;11.85;;;;;;;;;;5050772;28;20041;-56
2021/01/09 05:15:41;;;;;;;28.15;10.32;;;;;;;;;;5048022;28;20047;-58
2021/01/09 05:18:07;;;;;;;31.90;10.70;;;;;;;;;;5050122;28;20051;-58
2021/01/09 05:20:33;;;;;;;32.30;11.65;;;;;;;;;;5050290;28;20085;-58
2021/01/09 05:23:00;;;;;;;30.00;11.18;;;;;;;;;;5057491;28;20033;-58
2021/01/09 05:25:29;;;;;;;34.47;10.48;;;;;;;;;;5054527;28;20708;-58
2021/01/09 05:27:56;;;;;;;24.48;10.65;;;;;;;;;;5052788;28;20059;-58
2021/01/09 05:30:23;;;;;;;31.85;10.40;;;;;;;;;;5046523;28;20203;-58
2021/01/09 05:32:49;;;;;;;23.90;10.52;;;;;;;;;;5048528;28;20104;-58
2021/01/09 05:35:16;;;;;;;27.80;10.05;;;;;;;;;;5050803;28;25482;-58
2021/01/09 05:37:46;;;;;;;25.80;10.25;;;;;;;;;;5053088;28;20029;-58
2021/01/09 05:40:13;;;;;;;27.80;10.45;;;;;;;;;;5052465;28;20040;-58
2021/01/09 05:42:39;;;;;;;34.65;11.68;;;;;;;;;;5043475;28;20432;-58
2021/01/09 05:45:05;;;;;;;30.27;11.32;;;;;;;;;;5046195;28;20093;-58
2021/01/09 05:47:31;;;;;;;27.35;11.05;;;;;;;;;;5045638;28;20048;-58
2021/01/09 05:49:58;;;;;;;36.95;11.60;;;;;;;;;;5047334;28;20032;-58
2021/01/09 05:52:27;;;;;;;27.80;11.38;;;;;;;;;;5038783;28;20037;-58
2021/01/09 05:54:57;;;;;;;27.55;11.65;;;;;;;;;;5049404;28;20048;-57
2021/01/09 05:57:28;;;;;;;35.53;11.85;;;;;;;;;;5049113;28;20040;-57
2021/01/09 05:59:56;;;;;;;30.20;11.20;;;;;;;;;;5050415;28;20039;-58
2021/01/09 06:02:24;;;;;;;30.17;11.32;;;;;;;;;;5051852;28;20471;-58
2021/01/09 06:04:51;;;;;;;31.33;10.35;;;;;;;;;;5038422;28;22248;-58
2021/01/09 06:07:21;;;;;;;29.92;10.18;;;;;;;;;;5041086;28;20088;-57
2021/01/09 06:10:05;;;;;;;26.92;10.30;;;;;;;;;;5044508;28;20465;-57
2021/01/09 06:12:35;;;;;;;27.27;11.02;;;;;;;;;;5041233;28;20154;-57
2021/01/09 06:15:03;;;;;;;27.92;10.68;;;;;;;;;;5040372;28;20040;-58
2021/01/09 06:17:31;;;;;;;28.52;10.85;;;;;;;;;;5048495;28;20093;-58
2021/01/09 06:19:57;;;;;;;26.48;10.55;;;;;;;;;;5049104;28;20079;-57
2021/01/09 06:22:23;;;;;;;32.92;10.98;;;;;;;;;;5054242;28;20032;-57
2021/01/09 06:24:49;;;;;;;30.05;12.48;;;;;;;;;;5045730;28;20044;-57
2021/01/09 06:27:18;;;;;;;30.50;11.63;;;;;;;;;;5038288;28;20097;-57
2021/01/09 06:29:48;;;;;;;32.50;11.20;;;;;;;;;;5044507;28;20044;-57
2021/01/09 06:32:18;;;;;;;32.13;11.68;;;;;;;;;;5044003;28;20492;-57
2021/01/09 06:34:44;;;;;;;38.75;12.43;;;;;;;;;;5046289;28;20406;-57
2021/01/09 06:37:10;;;;;;;28.98;10.80;;;;;;;;;;5024846;28;20090;-57
2021/01/09 06:39:38;;;;;;;32.60;11.23;;;;;;;;;;5046078;28;20036;-57
2021/01/09 06:42:08;;;;;;;29.25;10.60;;;;;;;;;;5040162;28;20136;-58
2021/01/09 06:44:35;;;;;;;33.47;10.98;;;;;;;;;;5046793;28;20090;-58
2021/01/09 06:47:01;;;;;;;26.98;11.10;;;;;;;;;;5019362;28;20119;-57
2021/01/09 06:49:28;;;;;;;33.97;11.68;;;;;;;;;;5049155;28;20036;-57
2021/01/09 06:52:01;;;;;;;21.60;10.00;;;;;;;;;;5045713;28;20037;-57
2021/01/09 06:54:39;;;;;;;31.50;11.38;;;;;;;;;;5052303;28;20037;-56
2021/01/09 06:57:05;;;;;;;22.17;11.18;;;;;;;;;;5046661;28;20127;-57
2021/01/09 06:59:34;;;;;;;31.23;10.55;;;;;;;;;;5043576;28;20058;-57
2021/01/09 07:02:16;;;;;;;30.73;11.05;;;;;;;;;;5044097;28;20044;-57
2021/01/09 07:04:51;;;;;;;30.05;10.68;;;;;;;;;;5045356;28;20032;-57
2021/01/09 07:07:27;;;;;;;27.30;10.88;;;;;;;;;;5041424;28;20547;-57
2021/01/09 07:09:57;;;;;;;25.92;10.20;;;;;;;;;;5043537;28;20297;-57
2021/01/09 07:12:25;;;;;;;24.35;10.60;;;;;;;;;;5036268;28;20098;-56
2021/01/09 07:14:53;;;;;;;30.42;9.90;;;;;;;;;;5044181;28;20060;-57
2021/01/09 07:17:18;;;;;;;29.02;10.73;;;;;;;;;;5048422;28;20050;-57
2021/01/09 07:19:46;;;;;;;25.83;11.95;;;;;;;;;;5046237;28;20494;-58
2021/01/09 07:22:19;;;;;;;27.25;10.88;;;;;;;;;;5043959;28;20051;-57
2021/01/09 07:24:47;;;;;;;29.85;10.80;;;;;;;;;;5050571;28;20063;-58
2021/01/09 07:27:13;;;;;;;31.52;11.23;;;;;;;;;;5047784;28;20039;-58
2021/01/09 07:29:45;;;;;;;33.03;10.80;;;;;;;;;;5049180;28;20045;-57
2021/01/09 07:32:11;;;;;;;28.02;10.55;;;;;;;;;;5055979;28;20037;-58
2021/01/09 07:34:37;;;;;;;26.92;10.38;;;;;;;;;;5054697;28;20044;-57
2021/01/09 07:37:03;;;;;;;23.17;8.90;;;;;;;;;;5053131;28;20131;-58
2021/01/09 07:39:30;;;;;;;21.38;9.05;;;;;;;;;;5052310;28;20032;-58
2021/01/09 07:41:56;;;;;;;26.00;9.88;;;;;;;;;;5051202;28;20115;-58
2021/01/09 07:44:23;;;;;;;24.35;9.60;;;;;;;;;;5052691;28;20047;-58
2021/01/09 07:47:05;;;;;;;22.38;10.10;;;;;;;;;;5051522;28;20049;-58
2021/01/09 07:49:32;;;;;;;20.98;9.68;;;;;;;;;;5050269;28;20504;-57
2021/01/09 07:52:02;;;;;;;26.48;10.48;;;;;;;;;;5049817;28;20037;-58
2021/01/09 07:54:29;;;;;;;27.42;10.52;;;;;;;;;;5053663;28;20502;-58
2021/01/09 07:56:55;;;;;;;25.92;9.80;;;;;;;;;;5048268;28;20415;-58
2021/01/09 07:59:21;;;;;;;28.02;10.02;;;;;;;;;;5030191;28;20028;-57
2021/01/09 08:01:47;;;;;;;23.00;10.52;;;12.80;56.50;;;;;;5052325;28;21556;-58
2021/01/09 08:04:13;;;;;;;25.27;11.25;;;4.30;65.00;;;;;;5054036;28;20035;-57
2021/01/09 08:06:39;;;;;;;25.73;10.82;;;4.30;64.50;;;;;;5049341;28;20032;-57
2021/01/09 08:09:06;;;;;;;25.63;10.63;;;4.30;64.40;;;;;;5053865;28;20413;-57
2021/01/09 08:11:39;;;;;;;29.45;11.20;;;4.40;64.40;;;;;;5036486;28;20195;-58
2021/01/09 08:14:05;;;;;;;26.95;11.05;;;;;;;;;;5049248;28;20073;-57
2021/01/09 08:16:31;;;;;;;29.73;11.25;;;;;;;;;;5049423;28;20703;-57
2021/01/09 08:19:14;;;;;;;31.80;11.52;;;;;;;;;;5036869;28;20036;-57
2021/01/09 08:21:40;;;;;;;26.15;9.93;;;;;;;;;;5049186;28;20028;-57
2021/01/09 08:24:06;;;;;;;37.20;12.73;;;;;;;;;;5054915;28;20044;-57
2021/01/09 08:26:33;;;;;;;39.63;12.82;;;;;;;;;;5047493;28;20037;-58
2021/01/09 08:29:01;;;;;;;36.72;13.02;;;;;;;;;;5044622;28;20072;-58
2021/01/09 08:31:27;;;;;;;39.33;13.27;;;;;;;;;;5061500;28;20032;-58
2021/01/09 08:33:53;;;;;;;38.22;12.73;;;;;;;;;;5034943;28;20076;-58
2021/01/09 08:36:23;;;;;;;34.10;12.95;;;;;;;;;;5037012;28;20131;-56
2021/01/09 08:38:50;;;;;;;35.83;14.05;;;;;;;;;;5047671;28;21580;-58
2021/01/09 08:41:16;;;;;;;40.28;15.50;;;;;;;;;;5053174;28;20063;-57
2021/01/09 08:43:42;;;;;;;43.20;17.27;;;;;;;;;;5052557;28;20037;-57
2021/01/09 08:46:13;;;;;;;47.17;17.30;;;;;;;;;;5048467;28;20552;-57
2021/01/09 08:48:39;;;;;;;43.22;17.40;;;;;;;;;;5049726;28;20024;-57
2021/01/09 08:51:11;;;;;;;48.42;17.67;;;;;;;;;;5046431;28;20478;-58
2021/01/09 08:53:52;;;;;;;39.28;16.48;;;;;;;;;;5056363;28;20036;-58
2021/01/09 08:56:19;;;;;;;43.63;16.52;;;;;;;;;;5045785;28;20024;-58
2021/01/09 08:58:46;;;;;;;37.65;14.23;;;;;;;;;;5059321;28;23760;-58
2021/01/09 09:01:13;;;;;;;31.38;13.45;;;;;;;;;;5053848;28;20029;-58
2021/01/09 09:03:48;;;;;;;30.13;12.50;;;;;;;;;;5054300;28;20033;-58
2021/01/09 09:06:15;;;;;;;31.73;13.32;;;;;;;;;;5046648;28;20266;-58
2021/01/09 09:08:42;;;;;;;33.88;13.48;;;;;;;;;;5039175;28;20380;-58
2021/01/09 09:11:08;;;;;;;36.08;12.60;;;;;;;;;;5040094;28;20392;-58
2021/01/09 09:13:37;;;;;;;37.35;13.13;;;;;;;;;;5024909;28;20036;-58
2021/01/09 09:16:17;;;;;;;41.22;13.23;;;;;;;;;;5049879;28;20076;-58
2021/01/09 09:18:43;;;;;;;33.35;12.65;;;;;;;;;;5049635;28;20033;-58
2021/01/09 09:21:09;;;;;;;41.22;13.88;;;;;;;;;;5041369;28;20654;-57
2021/01/09 09:23:35;;;;;;;31.40;13.05;;;;;;;;;;5046920;28;20042;-58
2021/01/09 09:26:05;;;;;;;29.23;12.75;;;;;;;;;;5041958;28;20041;-58
2021/01/09 09:28:31;;;;;;;36.75;14.52;;;;;;;;;;5049709;28;20040;-58
2021/01/09 09:30:57;;;;;;;38.20;14.18;;;;;;;;;;5041543;28;20495;-58
2021/01/09 09:33:24;;;;;;;50.00;16.33;;;;;;;;;;5046559;28;21604;-58
2021/01/09 09:35:50;;;;;;;40.88;15.43;;;;;;;;;;5053890;28;20059;-58
2021/01/09 09:38:26;;;;;;;36.88;15.82;;;;;;;;;;5057708;28;20449;-59
2021/01/09 09:40:52;;;;;;;57.63;23.85;;;;;;;;;;5055060;28;20125;-58
2021/01/09 09:43:19;;;;;;;56.67;24.52;;;;;;;;;;5033103;28;20493;-58
2021/01/09 09:46:03;;;;;;;50.90;22.75;;;;;;;;;;5052957;28;20382;-58
2021/01/09 09:48:33;;;;;;;49.42;20.48;;;;;;;;;;5051601;28;20495;-58
2021/01/09 09:51:08;;;;;;;51.00;20.65;;;;;;;;;;5051376;28;20090;-58
2021/01/09 09:53:39;;;;;;;48.58;19.85;;;;;;;;;;5055342;28;20051;-58
2021/01/09 09:56:16;;;;;;;44.72;19.55;;;;;;;;;;5054962;28;20037;-57
2021/01/09 09:58:42;;;;;;;56.35;22.30;;;;;;;;;;5049480;28;20036;-58
2021/01/09 10:01:18;;;;;;;60.50;24.13;;;;;;;;;;5049686;28;20459;-59
2021/01/09 10:03:44;;;;;;;53.03;21.42;;;;;;;;;;5038300;28;20574;-58
2021/01/09 10:06:11;;;;;;;58.28;19.75;;;;;;;;;;5061039;28;20039;-58
2021/01/09 10:08:37;;;;;;;50.78;20.10;;;;;;;;;;5035919;28;20045;-58
2021/01/09 10:11:03;;;;;;;52.65;20.77;;;;;;;;;;5046234;28;22213;-58
2021/01/09 10:13:30;;;;;;;51.63;19.73;;;;;;;;;;5056846;28;20062;-58
2021/01/09 10:15:56;;;;;;;45.78;19.00;;;;;;;;;;5049370;28;20411;-58
2021/01/09 10:18:22;;;;;;;52.63;19.02;;;;;;;;;;5053598;28;20418;-58
2021/01/09 10:20:49;;;;;;;53.25;19.33;;;;;;;;;;5050077;28;20570;-57
2021/01/09 10:23:15;;;;;;;50.72;18.70;;;;;;;;;;5057882;28;20030;-58
2021/01/09 10:25:41;;;;;;;47.63;18.38;;;;;;;;;;5053607;28;20514;-58
2021/01/09 10:28:07;;;;;;;48.13;19.98;;;;;;;;;;5054630;28;20469;-58
2021/01/09 10:30:34;;;;;;;49.75;19.20;;;;;;;;;;5052660;28;20043;-59
2021/01/09 10:33:00;;;;;;;46.97;17.98;;;;;;;;;;5053175;28;20053;-58
2021/01/09 10:35:26;;;;;;;43.45;16.75;;;;;;;;;;5054726;28;20780;-58
2021/01/09 10:37:52;;;;;;;43.28;18.00;;;;;;;;;;5059114;28;20098;-58
2021/01/09 10:40:18;;;;;;;42.75;18.80;;;;;;;;;;5052255;28;20048;-59
2021/01/09 10:42:44;;;;;;;44.55;18.75;;;;;;;;;;5052431;28;20105;-58
2021/01/09 10:45:12;;;;;;;45.88;18.95;;;;;;;;;;5058291;28;23475;-59
2021/01/09 10:47:41;;;;;;;41.28;18.25;;;;;;;;;;5052365;28;20097;-59
2021/01/09 10:50:07;;;;;;;44.42;18.02;;;;;;;;;;5049860;28;20040;-58
2021/01/09 10:52:33;;;;;;;41.50;19.70;;;;;;;;;;5055957;28;20043;-58
2021/01/09 10:55:00;;;;;;;39.97;18.48;;;;;;;;;;5052905;28;20519;-58
2021/01/09 10:57:26;;;;;;;39.00;19.27;;;;;;;;;;5052069;28;20564;-58
2021/01/09 10:59:53;;;;;;;34.38;18.63;;;;;;;;;;5043466;28;20045;-57
2021/01/09 11:02:19;;;;;;;45.35;18.13;;;;;;;;;;5041881;28;20042;-58
2021/01/09 11:04:45;;;;;;;39.72;17.77;;;;;;;;;;5042637;28;20480;-58
2021/01/09 11:07:13;;;;;;;38.13;17.05;;;;;;;;;;5055190;28;20051;-57
2021/01/09 11:09:39;;;;;;;36.42;17.52;;;;;;;;;;5049572;28;20063;-58
2021/01/09 11:12:06;;;;;;;34.38;16.50;;;;;;;;;;5054032;28;20511;-58
2021/01/09 11:14:32;;;;;;;36.20;16.08;;;;;;;;;;5057904;28;20513;-59
2021/01/09 11:17:01;;;;;;;37.13;16.13;;;;;;;;;;5061827;28;20580;-59
2021/01/09 11:19:28;;;;;;;50.22;22.88;;;;;;;;;;5053588;28;20036;-58
2021/01/09 11:22:03;;;;;;;33.00;17.85;;;;;;;;;;5054613;28;20414;-59
2021/01/09 11:24:30;;;;;;;33.30;16.50;;;;;;;;;;5052876;28;20040;-59
2021/01/09 11:27:02;;;;;;;27.35;15.43;;;;;;;;;;5031416;28;20033;-59
2021/01/09 11:29:28;;;;;;;28.77;16.23;;;;;;;;;;5032933;28;20047;-59
2021/01/09 11:32:01;;;;;;;21.25;13.15;;;;;;;;;;5029091;28;20046;-59
2021/01/09 11:34:27;;;;;;;23.17;12.77;;;;;;;;;;5041992;28;20052;-58
2021/01/09 11:36:54;;;;;;;17.70;9.52;;;;;;;;;;5046337;28;20050;-58
2021/01/09 11:39:20;;;;;;;11.70;7.10;;;;;;;;;;5050273;28;20426;-58
2021/01/09 11:41:47;;;;;;;12.38;6.80;;;;;;;;;;5045249;28;20674;-59
2021/01/09 11:44:14;;;;;;;7.65;5.18;;;;;;;;;;5043214;28;20044;-59
2021/01/09 11:46:40;;;;;;;4.63;3.50;;;;;;;;;;5046315;28;20032;-59
2021/01/09 11:49:06;;;;;;;5.13;3.65;;;;;;;;;;5045941;28;20064;-59
2021/01/09 11:51:32;;;;;;;7.45;3.35;;;;;;;;;;5053489;28;20430;-59
2021/01/09 11:53:58;;;;;;;6.75;3.58;;;;;;;;;;5050751;28;20134;-59
2021/01/09 11:56:24;;;;;;;5.82;3.05;;;;;;;;;;5055481;28;20040;-58
2021/01/09 11:58:51;;;;;;;6.38;3.65;;;;;;;;;;5049042;28;20038;-59
2021/01/09 12:01:17;;;;;;;6.80;4.28;;;;;;;;;;5038921;28;20139;-59
2021/01/09 12:03:45;;;;;;;6.40;4.60;;;;;;;;;;5041279;28;20103;-59
2021/01/09 12:06:16;;;;;;;4.85;3.53;;;;;;;;;;5035966;28;20797;-58
2021/01/09 12:08:42;;;;;;;7.45;4.05;;;;;;;;;;5032353;28;20513;-58
2021/01/09 12:11:08;;;;;;;5.32;4.18;;;;;;;;;;5038504;28;20128;-59
2021/01/09 12:13:34;;;;;;;5.78;3.35;;;;;;;;;;5037364;28;20489;-59
2021/01/09 12:16:00;;;;;;;5.50;3.55;;;;;;;;;;5054205;28;20196;-59
2021/01/09 12:18:26;;;;;;;4.00;3.00;;;;;;;;;;5049585;28;20048;-59
2021/01/09 12:20:52;;;;;;;3.97;2.85;;;;;;;;;;5049632;28;20040;-59
2021/01/09 12:23:18;;;;;;;4.78;3.20;;;;;;;;;;5055083;28;20036;-59
2021/01/09 12:25:44;;;;;;;8.18;3.00;;;;;;;;;;5053878;28;20461;-59
2021/01/09 12:28:10;;;;;;;6.03;3.08;;;;;;;;;;5063407;28;20037;-59
2021/01/09 12:30:36;;;;;;;6.07;3.40;;;;;;;;;;5050232;28;20421;-59
2021/01/09 12:33:02;;;;;;;5.20;3.22;;;;;;;;;;5058370;28;20375;-58
2021/01/09 12:35:28;;;;;;;3.40;2.35;;;;;;;;;;5064694;28;20048;-59
2021/01/09 12:37:54;;;;;;;6.70;2.53;;;;;;;;;;5062117;28;20090;-58
2021/01/09 12:40:21;;;;;;;5.53;3.17;;;;;;;;;;5052851;28;20053;-59
2021/01/09 12:42:47;;;;;;;6.47;3.97;;;;;;;;;;5055121;28;20044;-59
2021/01/09 12:45:13;;;;;;;3.80;2.55;;;;;;;;;;5060224;28;20043;-58
2021/01/09 12:47:39;;;;;;;3.97;2.70;;;;;;;;;;5062137;28;20052;-59
2021/01/09 12:50:05;;;;;;;4.45;2.40;;;;;;;;;;5038907;28;20130;-59
2021/01/09 12:52:31;;;;;;;7.82;2.58;;;;;;;;;;5053183;28;20157;-58
2021/01/09 12:54:57;;;;;;;5.10;2.60;;;;;;;;;;5053924;28;20037;-58
2021/01/09 12:57:23;;;;;;;3.00;2.50;;;;;;;;;;5047454;28;20434;-58
2021/01/09 12:59:50;;;;;;;4.43;3.28;;;;;;;;;;5053640;28;20070;-59
2021/01/09 13:02:16;;;;;;;3.75;2.50;;;;;;;;;;5056923;28;20049;-58
2021/01/09 13:04:42;;;;;;;4.35;3.22;;;;;;;;;;5056384;28;23325;-58
2021/01/09 13:07:08;;;;;;;4.45;2.90;;;;;;;;;;5053406;28;20068;-58
2021/01/09 13:09:34;;;;;;;5.28;2.40;;;;;;;;;;5053056;28;20047;-58
2021/01/09 13:12:00;;;;;;;5.20;2.85;;;;;;;;;;5043577;28;20046;-58
2021/01/09 13:14:26;;;;;;;2.92;2.47;;;;;;;;;;5047773;28;20065;-58
2021/01/09 13:16:53;;;;;;;5.05;2.97;;;;;;;;;;5051161;28;20173;-58
2021/01/09 13:19:23;;;;;;;5.70;3.15;;;;;;;;;;5046180;28;20060;-58
2021/01/09 13:21:53;;;;;;;3.33;2.80;;;;;;;;;;5055050;28;20120;-58
2021/01/09 13:24:19;;;;;;;4.60;3.03;;;;;;;;;;5054231;28;20545;-59
2021/01/09 13:26:45;;;;;;;6.45;3.25;;;;;;;;;;5058612;28;20046;-58
2021/01/09 13:29:12;;;;;;;4.72;2.90;;;;;;;;;;5048407;28;20048;-58
2021/01/09 13:31:39;;;;;;;7.78;4.63;;;;;;;;;;5055464;28;20044;-59
2021/01/09 13:34:05;;;;;;;7.22;4.63;;;;;;;;;;5059069;28;20036;-59
2021/01/09 13:36:32;;;;;;;5.88;3.85;;;;;;;;;;5051599;28;20099;-59
2021/01/09 13:38:58;;;;;;;7.40;3.58;;;;;;;;;;5058659;28;20075;-58
2021/01/09 13:41:24;;;;;;;5.68;3.75;;;;;;;;;;5057467;28;20048;-57
2021/01/09 13:43:50;;;;;;;8.30;3.42;;;;;;;;;;5047296;28;20041;-58
2021/01/09 13:46:28;;;;;;;6.80;3.13;;;;;;;;;;5057792;28;20037;-58
2021/01/09 13:48:55;;;;;;;5.47;3.70;;;;;;;;;;5049400;28;20082;-63
2021/01/09 13:51:25;;;;;;;4.47;3.53;;;;;;;;;;5044925;28;20076;-63
2021/01/09 13:53:54;;;;;;;5.65;3.80;;;;;;;;;;5056883;28;20048;-59
2021/01/09 13:56:31;;;;;;;5.15;3.40;;;;;;;;;;5054393;28;20126;-58
2021/01/09 13:58:57;;;;;;;6.13;3.97;;;;;;;;;;5054745;28;20409;-58
2021/01/09 14:01:23;;;;;;;8.05;4.57;;;;;;;;;;5049905;28;20051;-58
2021/01/09 14:03:49;;;;;;;7.03;4.15;;;;;;;;;;5043979;28;20037;-58
2021/01/09 14:06:15;;;;;;;8.65;4.00;;;;;;;;;;5050944;28;20047;-58
2021/01/09 14:08:41;;;;;;;8.85;4.88;;;;;;;;;;5045922;28;20590;-57
2021/01/09 14:11:07;;;;;;;13.98;6.15;;;;;;;;;;5044193;28;20586;-60
2021/01/09 14:13:33;;;;;;;25.02;9.27;;;;;;;;;;5044317;28;20482;-59
2021/01/09 14:15:59;;;;;;;16.52;7.38;;;;;;;;;;5031289;28;20068;-59
2021/01/09 14:18:25;;;;;;;19.40;7.43;;;;;;;;;;5047885;28;20028;-59
2021/01/09 14:20:56;;;;;;;12.93;7.28;;;;;;;;;;5048526;28;20041;-59
2021/01/09 14:23:22;;;;;;;25.98;10.18;;;;;;;;;;5038716;28;20033;-63